Time;durP1;ratioP1;P1;durP2;ratioP2;P2;SDS_P1;SDS_P2;PMS_P1;PMS_P2;Temp;Humidity;BMP_temperature;BMP_pressure;BME280_temperature;BME280_humidity;BME280_pressure;Samples;Min_cycle;Max_cycle;Signal;HPM_P1;HPM_P2
2023/04/16 00:01:09;;;;;;;19.10;10.13;;;;;;;;;;5015027;28;20207;-69
2023/04/16 00:03:35;;;;;;;19.50;10.07;;;;;;;;;;5015670;28;20184;-68
2023/04/16 00:06:01;;;;;;;23.20;10.30;;;;;;;;;;5015239;28;20200;-69
2023/04/16 00:08:27;;;;;;;18.47;10.90;;;;;;;;;;5015444;28;20172;-68
2023/04/16 00:10:53;;;;;;;20.70;11.33;;;;;;;;;;5015346;28;20176;-69
2023/04/16 00:13:19;;;;;;;17.83;10.83;;;;;;;;;;5015054;28;20183;-67
2023/04/16 00:15:45;;;;;;;21.90;11.30;;;;;;;;;;5014974;28;20179;-69
2023/04/16 00:18:11;;;;;;;18.57;11.47;;;;;;;;;;4997707;28;20662;-69
2023/04/16 00:20:37;;;;;;;19.90;11.93;;;;;;;;;;5014971;28;20184;-70
2023/04/16 00:23:03;;;;;;;20.67;11.27;;;;;;;;;;5015110;28;20180;-68
2023/04/16 00:25:29;;;;;;;21.17;11.53;;;;;;;;;;4997396;28;20179;-68
2023/04/16 00:27:55;;;;;;;26.20;12.23;;;;;;;;;;5014774;28;20655;-69
2023/04/16 00:30:21;;;;;;;20.13;11.20;;;;;;;;;;5015252;28;20263;-69
2023/04/16 00:32:47;;;;;;;25.17;12.53;;;;;;;;;;5015600;28;20180;-69
2023/04/16 00:35:13;;;;;;;30.60;13.53;;;;;;;;;;5016563;28;20634;-69
2023/04/16 00:37:39;;;;;;;28.13;14.63;;;;;;;;;;5015370;28;20195;-69
2023/04/16 00:40:05;;;;;;;30.73;16.37;;;;;;;;;;4997467;28;20187;-69
2023/04/16 00:42:31;;;;;;;27.70;16.80;;;;;;;;;;5015276;28;20203;-68
2023/04/16 00:44:57;;;;;;;27.67;18.23;;;;;;;;;;5015035;28;20180;-69
2023/04/16 00:47:23;;;;;;;39.10;18.20;;;;;;;;;;5015093;28;20215;-69
2023/04/16 00:49:49;;;;;;;32.57;17.73;;;;;;;;;;5015064;28;20256;-68
2023/04/16 00:52:15;;;;;;;28.10;17.50;;;;;;;;;;5014831;28;20266;-67
2023/04/16 00:54:41;;;;;;;32.93;18.50;;;;;;;;;;4997054;28;20222;-68
2023/04/16 00:57:07;;;;;;;34.73;16.97;;;;;;;;;;4997174;28;20208;-67
2023/04/16 00:59:33;;;;;;;29.03;17.47;;;;;;;;;;5014990;28;20230;-67
2023/04/16 01:01:59;;;;;;;32.37;18.40;;;;;;;;;;4997092;28;20294;-69
2023/04/16 01:04:25;;;;;;;40.43;18.70;;;;;;;;;;4996511;28;20191;-69
2023/04/16 01:06:51;;;;;;;33.60;19.30;;;;;;;;;;5014502;28;20195;-69
2023/04/16 01:09:17;;;;;;;32.17;19.00;;;;;;;;;;5014288;28;20180;-67
2023/04/16 01:11:43;;;;;;;35.30;20.30;;;;;;;;;;5014604;28;20212;-69
2023/04/16 01:14:09;;;;;;;35.93;19.30;;;;;;;;;;5014311;28;20191;-68
2023/04/16 01:16:35;;;;;;;34.77;20.27;;;;;;;;;;5014242;28;20204;-69
2023/04/16 01:19:01;;;;;;;34.30;18.33;;;;;;;;;;5014641;28;20180;-69
2023/04/16 01:21:27;;;;;;;33.07;19.13;;;;;;;;;;4996573;28;20199;-69
2023/04/16 01:23:53;;;;;;;39.87;18.87;;;;;;;;;;5014292;28;20182;-69
2023/04/16 01:26:19;;;;;;;30.37;18.57;;;;;;;;;;4996660;28;20192;-68
2023/04/16 01:28:45;;;;;;;40.73;19.87;;;;;;;;;;5014237;28;20595;-68
2023/04/16 01:31:11;;;;;;;33.77;19.20;;;;;;;;;;5014032;28;20192;-69
2023/04/16 01:33:37;;;;;;;34.27;20.00;;;;;;;;;;5014678;28;20179;-70
2023/04/16 01:36:03;;;;;;;38.97;19.17;;;;;;;;;;4996545;28;20290;-68
2023/04/16 01:38:29;;;;;;;37.20;19.53;;;;;;;;;;5014343;28;20245;-69
2023/04/16 01:40:59;;;;;;;32.43;20.03;;;;;;;;;;4996350;28;20302;-69
2023/04/16 01:43:25;;;;;;;37.83;20.13;;;;;;;;;;5013894;28;20208;-68
2023/04/16 01:45:52;;;;;;;35.30;19.07;;;;;;;;;;4996330;28;20179;-69
2023/04/16 01:48:18;;;;;;;37.73;19.70;;;;;;;;;;5013886;28;20638;-69
2023/04/16 01:50:44;;;;;;;29.03;18.87;;;;;;;;;;5013816;28;20185;-68
2023/04/16 01:53:09;;;;;;;37.33;21.20;;;;;;;;;;5014079;28;20258;-67
2023/04/16 01:55:35;;;;;;;34.90;20.13;;;;;;;;;;5014298;28;20195;-68
2023/04/16 01:58:09;;;;;;;36.07;19.50;;;;;;;;;;5013728;28;20295;-69
2023/04/16 02:00:35;;;;;;;40.93;20.30;;;;;;;;;;4996149;28;20653;-68
2023/04/16 02:03:01;;;;;;;38.67;19.23;;;;;;;;;;5013186;28;20611;-69
2023/04/16 02:05:27;;;;;;;36.67;20.07;;;;;;;;;;5013523;28;20203;-70
2023/04/16 02:07:53;;;;;;;37.23;21.13;;;;;;;;;;5013413;28;20249;-69
2023/04/16 02:10:19;;;;;;;36.37;19.87;;;;;;;;;;5013070;28;20226;-69
2023/04/16 02:12:46;;;;;;;30.07;21.07;;;;;;;;;;4995556;28;20180;-68
2023/04/16 02:15:12;;;;;;;38.13;22.40;;;;;;;;;;4995488;28;20180;-69
2023/04/16 02:17:38;;;;;;;32.83;20.57;;;;;;;;;;5016105;28;20258;-69
2023/04/16 02:20:06;;;;;;;40.33;21.87;;;;;;;;;;4999301;28;20180;-69
2023/04/16 02:22:32;;;;;;;35.33;21.33;;;;;;;;;;5017051;28;20203;-68
2023/04/16 02:24:58;;;;;;;41.27;20.83;;;;;;;;;;5016756;28;20178;-68
2023/04/16 02:27:24;;;;;;;39.40;21.50;;;;;;;;;;4999219;28;20342;-68
2023/04/16 02:29:50;;;;;;;47.03;23.10;;;;;;;;;;5016712;28;20187;-69
2023/04/16 02:32:17;;;;;;;33.93;21.43;;;;;;;;;;5016583;28;20180;-70
2023/04/16 02:34:43;;;;;;;39.73;21.53;;;;;;;;;;4998849;28;20271;-69
2023/04/16 02:37:09;;;;;;;40.33;21.90;;;;;;;;;;5016675;28;20199;-68
2023/04/16 02:39:35;;;;;;;41.40;22.07;;;;;;;;;;5016522;28;20187;-68
2023/04/16 02:42:01;;;;;;;40.90;22.63;;;;;;;;;;5016416;28;20203;-70
2023/04/16 02:44:27;;;;;;;38.23;22.17;;;;;;;;;;5016607;28;20175;-69
2023/04/16 02:46:53;;;;;;;35.37;22.17;;;;;;;;;;4998595;28;20226;-68
2023/04/16 02:49:19;;;;;;;41.07;23.93;;;;;;;;;;5016884;28;20541;-67
2023/04/16 02:51:45;;;;;;;46.50;25.03;;;;;;;;;;5016323;28;20661;-68
2023/04/16 02:54:11;;;;;;;46.67;24.97;;;;;;;;;;5016182;28;20224;-68
2023/04/16 02:56:37;;;;;;;48.87;26.23;;;;;;;;;;5016507;28;20199;-70
2023/04/16 02:59:03;;;;;;;41.43;26.30;;;;;;;;;;5015965;28;20180;-68
2023/04/16 03:01:29;;;;;;;38.57;24.43;;;;;;;;;;5016045;28;20295;-69
2023/04/16 03:03:55;;;;;;;39.03;24.10;;;;;;;;;;5016364;28;20265;-68
2023/04/16 03:06:21;;;;;;;46.57;25.17;;;;;;;;;;5016165;28;20195;-70
2023/04/16 03:08:47;;;;;;;49.27;28.43;;;;;;;;;;5016338;28;20183;-68
2023/04/16 03:11:13;;;;;;;52.27;28.37;;;;;;;;;;4998542;28;20242;-69
2023/04/16 03:13:39;;;;;;;40.97;26.30;;;;;;;;;;5016309;28;20184;-67
2023/04/16 03:16:05;;;;;;;53.17;26.80;;;;;;;;;;5016045;28;20277;-69
2023/04/16 03:18:31;;;;;;;50.53;26.50;;;;;;;;;;5016343;28;20215;-69
2023/04/16 03:20:57;;;;;;;45.00;26.53;;;;;;;;;;5016124;28;20179;-68
2023/04/16 03:23:23;;;;;;;45.57;26.40;;;;;;;;;;5016006;28;20570;-67
2023/04/16 03:25:49;;;;;;;42.80;26.67;;;;;;;;;;5015771;28;20180;-69
2023/04/16 03:28:15;;;;;;;49.53;27.47;;;;;;;;;;4998032;28;20186;-68
2023/04/16 03:30:41;;;;;;;39.27;24.93;;;;;;;;;;5016176;28;20180;-69
2023/04/16 03:33:07;;;;;;;43.70;26.07;;;;;;;;;;5015813;28;20172;-68
2023/04/16 03:35:33;;;;;;;43.43;25.20;;;;;;;;;;5016284;28;20172;-69
2023/04/16 03:37:59;;;;;;;45.83;26.70;;;;;;;;;;4998794;28;20673;-68
2023/04/16 03:40:24;;;;;;;45.13;26.77;;;;;;;;;;5015947;28;20183;-66
2023/04/16 03:42:50;;;;;;;45.23;26.60;;;;;;;;;;5015606;28;20203;-67
2023/04/16 03:45:16;;;;;;;48.50;25.47;;;;;;;;;;4998063;28;20179;-68
2023/04/16 03:47:42;;;;;;;39.60;25.07;;;;;;;;;;5015591;28;20215;-69
2023/04/16 03:50:10;;;;;;;42.80;25.13;;;;;;;;;;5016095;28;20180;-68
2023/04/16 03:52:36;;;;;;;45.37;25.77;;;;;;;;;;5015959;28;20184;-69
2023/04/16 03:55:02;;;;;;;52.70;27.07;;;;;;;;;;4997693;28;20253;-68
2023/04/16 03:57:28;;;;;;;44.70;25.67;;;;;;;;;;5015503;28;20615;-68
2023/04/16 03:59:54;;;;;;;48.67;26.87;;;;;;;;;;5015130;28;20187;-69
2023/04/16 04:02:20;;;;;;;41.13;24.90;;;;;;;;;;5015744;28;20208;-69
2023/04/16 04:04:46;;;;;;;42.43;24.40;;;;;;;;;;4997748;28;20204;-68
2023/04/16 04:07:12;;;;;;;47.93;26.83;;;;;;;;;;5015927;28;20244;-68
2023/04/16 04:09:38;;;;;;;46.37;25.97;;;;;;;;;;5015547;28;20172;-68
2023/04/16 04:12:04;;;;;;;44.47;25.83;;;;;;;;;;5015105;28;20180;-69
2023/04/16 04:14:30;;;;;;;44.20;25.57;;;;;;;;;;4997485;28;20184;-68
2023/04/16 04:16:56;;;;;;;48.87;25.40;;;;;;;;;;5015029;28;20326;-68
2023/04/16 04:19:22;;;;;;;43.13;25.60;;;;;;;;;;4997617;28;20241;-68
2023/04/16 04:21:48;;;;;;;44.20;25.70;;;;;;;;;;5014880;28;20759;-69
2023/04/16 04:24:14;;;;;;;45.07;25.37;;;;;;;;;;4997384;28;20677;-68
2023/04/16 04:26:40;;;;;;;44.63;26.50;;;;;;;;;;5014693;28;20701;-67
2023/04/16 04:29:06;;;;;;;49.93;26.53;;;;;;;;;;4997160;28;20184;-69
2023/04/16 04:31:32;;;;;;;42.07;24.63;;;;;;;;;;5014777;28;20184;-69
2023/04/16 04:33:58;;;;;;;42.63;26.07;;;;;;;;;;4997174;28;20588;-69
2023/04/16 04:36:26;;;;;;;51.80;26.63;;;;;;;;;;5014529;28;20707;-69
2023/04/16 04:38:51;;;;;;;43.43;26.50;;;;;;;;;;5013923;28;20259;-68
2023/04/16 04:41:17;;;;;;;49.90;26.80;;;;;;;;;;5014610;28;20314;-68
2023/04/16 04:43:43;;;;;;;40.43;25.17;;;;;;;;;;5014514;28;20238;-69
2023/04/16 04:46:09;;;;;;;47.13;26.97;;;;;;;;;;5014382;28;20261;-69
2023/04/16 04:48:35;;;;;;;47.60;27.43;;;;;;;;;;5014737;28;20164;-68
2023/04/16 04:51:03;;;;;;;54.17;27.30;;;;;;;;;;4996221;28;20183;-68
2023/04/16 04:53:29;;;;;;;47.47;26.53;;;;;;;;;;5014648;28;20319;-69
2023/04/16 04:55:55;;;;;;;46.77;27.90;;;;;;;;;;5014407;28;20299;-68
2023/04/16 04:58:21;;;;;;;51.17;28.83;;;;;;;;;;5014481;28;20172;-69
2023/04/16 05:00:47;;;;;;;44.97;25.77;;;;;;;;;;5014228;28;20202;-69
2023/04/16 05:03:12;;;;;;;44.90;26.30;;;;;;;;;;5014032;28;20182;-68
2023/04/16 05:05:40;;;;;;;47.33;25.27;;;;;;;;;;5014377;28;20172;-66
2023/04/16 05:08:06;;;;;;;48.27;26.03;;;;;;;;;;5014032;28;20176;-69
2023/04/16 05:10:32;;;;;;;48.33;27.57;;;;;;;;;;5014229;28;20218;-68
2023/04/16 05:12:58;;;;;;;46.03;27.50;;;;;;;;;;5014077;28;20180;-70
2023/04/16 05:15:24;;;;;;;46.53;29.77;;;;;;;;;;5013842;28;20182;-69
2023/04/16 05:17:50;;;;;;;48.17;27.47;;;;;;;;;;4996002;28;20304;-70
2023/04/16 05:20:16;;;;;;;54.03;27.73;;;;;;;;;;5013753;28;20542;-68
2023/04/16 05:22:42;;;;;;;57.03;29.53;;;;;;;;;;5013909;28;20631;-69
2023/04/16 05:25:08;;;;;;;50.60;30.07;;;;;;;;;;5013781;28;20180;-69
2023/04/16 05:27:34;;;;;;;58.97;29.53;;;;;;;;;;4995975;28;20207;-68
2023/04/16 05:30:00;;;;;;;46.63;29.57;;;;;;;;;;5013891;28;20182;-69
2023/04/16 05:32:26;;;;;;;53.17;30.13;;;;;;;;;;4996186;28;20188;-70
2023/04/16 05:34:52;;;;;;;57.73;32.10;;;;;;;;;;4996164;28;20179;-69
2023/04/16 05:37:18;;;;;;;56.50;30.83;;;;;;;;;;4996066;28;20208;-70
2023/04/16 05:39:44;;;;;;;60.63;32.17;;;;;;;;;;5013949;28;20191;-69
2023/04/16 05:42:10;;;;;;;62.30;32.97;;;;;;;;;;4995983;28;20218;-69
2023/04/16 05:44:37;;;;;;;60.43;36.07;;;;;;;;;;5013607;28;20226;-69
2023/04/16 05:47:03;;;;;;;68.43;35.67;;;;;;;;;;4995729;28;20774;-70
2023/04/16 05:49:28;;;;;;;64.90;36.20;;;;;;;;;;5056311;23;20245;-70
2023/04/16 05:51:54;;;;;;;63.80;36.33;;;;;;;;;;5031197;28;20600;-71
2023/04/16 05:54:20;;;;;;;67.27;37.37;;;;;;;;;;5046679;28;20679;-71
2023/04/16 05:56:46;;;;;;;67.60;37.13;;;;;;;;;;5047802;28;20179;-71
2023/04/16 05:59:12;;;;;;;55.33;33.73;;;;;;;;;;5024195;28;20260;-70
2023/04/16 06:01:38;;;;;;;64.03;36.13;;;;;;;;;;5045208;28;20207;-71
2023/04/16 06:04:04;;;;;;;59.23;34.40;;;;;;;;;;5046226;28;20178;-72
2023/04/16 06:06:30;;;;;;;54.90;32.80;;;;;;;;;;5028172;28;20203;-71
2023/04/16 06:08:56;;;;;;;49.43;31.20;;;;;;;;;;5044244;28;20568;-72
2023/04/16 06:11:22;;;;;;;48.77;31.40;;;;;;;;;;5039351;28;20186;-71
2023/04/16 06:13:48;;;;;;;50.17;30.93;;;;;;;;;;5020981;28;20182;-71
2023/04/16 06:16:14;;;;;;;52.80;30.07;;;;;;;;;;5021530;28;20225;-71
2023/04/16 06:18:41;;;;;;;49.93;30.70;;;;;;;;;;5038613;28;20235;-71
2023/04/16 06:21:07;;;;;;;46.70;29.77;;;;;;;;;;5021236;28;20215;-71
2023/04/16 06:23:33;;;;;;;44.27;28.43;;;;;;;;;;5038220;28;20178;-71
2023/04/16 06:25:58;;;;;;;38.67;27.53;;;;;;;;;;5020610;28;20179;-71
2023/04/16 06:28:24;;;;;;;48.23;29.37;;;;;;;;;;5022537;28;20575;-71
2023/04/16 06:30:50;;;;;;;39.40;27.67;;;;;;;;;;5020369;28;20627;-71
2023/04/16 06:33:16;;;;;;;43.70;25.67;;;;;;;;;;5019801;28;20187;-71
2023/04/16 06:35:42;;;;;;;43.20;28.93;;;;;;;;;;5019876;28;20185;-71
2023/04/16 06:38:08;;;;;;;44.83;26.97;;;;;;;;;;5019536;28;20234;-71
2023/04/16 06:40:36;;;;;;;39.13;25.73;;;;;;;;;;5019709;28;20231;-71
2023/04/16 06:43:02;;;;;;;42.50;28.07;;;;;;;;;;5037457;28;20219;-72
2023/04/16 06:45:28;;;;;;;44.60;26.97;;;;;;;;;;5020079;28;20185;-72
2023/04/16 06:47:54;;;;;;;38.10;26.53;;;;;;;;;;5037714;28;20561;-72
2023/04/16 06:50:22;;;;;;;41.10;28.23;;;;;;;;;;5039173;28;20629;-71
2023/04/16 06:52:48;;;;;;;45.67;27.53;;;;;;;;;;5037407;28;20649;-71
2023/04/16 06:55:14;;;;;;;41.47;25.70;;;;;;;;;;5019422;28;20191;-72
2023/04/16 06:57:40;;;;;;;39.47;27.63;;;;;;;;;;5037207;28;20175;-72
2023/04/16 07:00:06;;;;;;;39.67;26.13;;;;;;;;;;5037100;28;20190;-72
2023/04/16 07:02:32;;;;;;;37.57;25.83;;;;;;;;;;5018331;28;20209;-71
2023/04/16 07:04:58;;;;;;;38.90;26.53;;;;;;;;;;5037087;28;20641;-72
2023/04/16 07:07:24;;;;;;;42.50;27.37;;;;;;;;;;5037428;28;20179;-71
2023/04/16 07:09:50;;;;;;;39.00;27.73;;;;;;;;;;5019649;28;20285;-72
2023/04/16 07:12:16;;;;;;;39.00;26.73;;;;;;;;;;5019826;28;20183;-71
2023/04/16 07:14:42;;;;;;;37.20;25.70;;;;;;;;;;5038100;28;20187;-71
2023/04/16 07:17:08;;;;;;;43.33;27.37;;;;;;;;;;5021053;28;20270;-71
2023/04/16 07:19:34;;;;;;;38.80;27.27;;;;;;;;;;5020979;28;20210;-72
2023/04/16 07:22:00;;;;;;;37.43;26.07;;;;;;;;;;5019595;28;20214;-72
2023/04/16 07:24:26;;;;;;;38.00;24.67;;;;;;;;;;5036787;28;20172;-72
2023/04/16 07:26:53;;;;;;;36.60;26.83;;;;;;;;;;5037862;28;20203;-72
2023/04/16 07:29:19;;;;;;;36.53;26.03;;;;;;;;;;5019066;28;20655;-71
2023/04/16 07:31:45;;;;;;;39.03;26.47;;;;;;;;;;5037989;28;20229;-72
2023/04/16 07:34:15;;;;;;;38.33;26.23;;;;;;;;;;5021829;28;20191;-72
2023/04/16 07:36:41;;;;;;;38.07;25.67;;;;;;;;;;5022726;28;20274;-72
2023/04/16 07:39:07;;;;;;;37.70;24.90;;;;;;;;;;5040077;28;20227;-72
2023/04/16 07:41:33;;;;;;;36.57;25.57;;;;;;;;;;5021833;28;20203;-71
2023/04/16 07:43:59;;;;;;;37.20;25.33;;;;;;;;;;5040287;28;20176;-71
2023/04/16 07:46:25;;;;;;;41.60;24.80;;;;;;;;;;5021759;28;20182;-72
2023/04/16 07:48:51;;;;;;;38.50;25.63;;;;;;;;;;5024470;28;20219;-72
2023/04/16 07:51:17;;;;;;;34.27;24.70;;;;;;;;;;5036570;28;20229;-72
2023/04/16 07:53:43;;;;;;;39.63;26.90;;;;;;;;;;5036294;28;20225;-72
2023/04/16 07:56:09;;;;;;;39.77;25.23;;;;;;;;;;5018447;28;20187;-71
2023/04/16 07:58:35;;;;;;;37.43;27.03;;;;;;;;;;5036007;28;20206;-72
2023/04/16 08:01:01;;;;;;;34.77;24.97;;;;;;;;;;5018393;28;20653;-71
2023/04/16 08:03:27;;;;;;;35.73;25.63;;;;;;;;;;5036435;28;20545;-71
2023/04/16 08:05:53;;;;;;;36.53;26.37;;;;;;;;;;5036757;28;20175;-73
2023/04/16 08:08:19;;;;;;;33.17;24.93;;;;;;;;;;5037722;28;20264;-72
2023/04/16 08:10:45;;;;;;;38.17;24.63;;;;;;;;;;5019402;28;20179;-71
2023/04/16 08:13:11;;;;;;;37.43;24.77;;;;;;;;;;5017632;28;20187;-71
2023/04/16 08:15:37;;;;;;;37.00;25.03;;;;;;;;;;5017862;28;20183;-71
2023/04/16 08:18:04;;;;;;;34.07;24.27;;;;;;;;;;5035796;28;20199;-71
2023/04/16 08:20:30;;;;;;;33.27;23.27;;;;;;;;;;5018080;28;20268;-72
2023/04/16 08:22:56;;;;;;;35.07;25.70;;;;;;;;;;5017968;28;20685;-70
2023/04/16 08:25:23;;;;;;;35.87;25.77;;;;;;;;;;5017578;28;20179;-72
2023/04/16 08:27:49;;;;;;;36.20;25.10;;;;;;;;;;5017615;28;20190;-71
2023/04/16 08:30:15;;;;;;;31.57;24.63;;;;;;;;;;5034854;28;20649;-71
2023/04/16 08:32:42;;;;;;;34.60;23.80;;;;;;;;;;5016811;28;20286;-72
2023/04/16 08:35:09;;;;;;;37.57;24.03;;;;;;;;;;5017003;28;20183;-72
2023/04/16 08:37:35;;;;;;;34.07;23.43;;;;;;;;;;5016838;28;20724;-71
2023/04/16 08:40:01;;;;;;;37.97;24.87;;;;;;;;;;5035019;28;20214;-72
2023/04/16 08:42:54;;;;;;;35.73;24.27;;;;;;;;;;5016825;28;20261;-72
2023/04/16 08:45:20;;;;;;;33.77;23.73;;;;;;;;;;5031551;28;20285;-72
2023/04/16 08:47:47;;;;;;;34.33;23.87;;;;;;;;;;5036275;28;20226;-74
2023/04/16 08:50:14;;;;;;;34.57;23.70;;;;;;;;;;5018768;28;20716;-72
2023/04/16 08:52:51;;;;;;;36.33;24.47;;;;;;;;;;5016775;28;20202;-72
2023/04/16 08:55:19;;;;;;;28.60;20.67;;;;;;;;;;5016587;28;20171;-72
2023/04/16 08:57:50;;;;;;;32.53;21.60;;;;;;;;;;5016590;28;20186;-72
2023/04/16 09:00:16;;;;;;;31.37;23.03;;;;;;;;;;5016604;28;20182;-72
2023/04/16 09:02:42;;;;;;;31.70;22.57;;;;;;;;;;5016527;28;20297;-72
2023/04/16 09:05:15;;;;;;;27.70;22.30;;;;;;;;;;5016669;28;20190;-72
2023/04/16 09:07:42;;;;;;;28.83;21.80;;;;;;;;;;5034284;28;20633;-73
2023/04/16 09:10:08;;;;;;;25.13;20.40;;;;;;;;;;5016204;28;20178;-73
2023/04/16 09:12:37;;;;;;;27.73;20.97;;;;;;;;;;5035067;28;20259;-74
2023/04/16 09:15:03;;;;;;;31.80;21.97;;;;;;;;;;5036837;28;20201;-74
2023/04/16 09:17:30;;;;;;;31.00;21.70;;;;;;;;;;5035818;28;20191;-71
2023/04/16 09:19:56;;;;;;;28.93;22.87;;;;;;;;;;5034419;28;20233;-71
2023/04/16 09:22:21;;;;;;;33.37;22.40;;;;;;;;;;5016252;28;20242;-71
2023/04/16 09:24:47;;;;;;;30.03;22.37;;;;;;;;;;5033720;28;20183;-70
2023/04/16 09:27:13;;;;;;;29.47;22.30;;;;;;;;;;5034653;28;20175;-71
2023/04/16 09:29:40;;;;;;;34.33;23.37;;;;;;;;;;5033952;28;20571;-71
2023/04/16 09:32:07;;;;;;;32.67;22.43;;;;;;;;;;5016171;28;20206;-71
2023/04/16 09:34:34;;;;;;;29.20;22.40;;;;;;;;;;5016934;28;20178;-71
2023/04/16 09:37:16;;;;;;;34.73;23.10;;;;;;;;;;5033789;28;20182;-71
2023/04/16 09:39:42;;;;;;;34.37;23.20;;;;;;;;;;5017034;28;20257;-71
2023/04/16 09:42:08;;;;;;;30.17;23.03;;;;;;;;;;5034861;28;20258;-71
2023/04/16 09:44:38;;;;;;;29.37;21.50;;;;;;;;;;5033840;28;20175;-71
2023/04/16 09:47:08;;;;;;;34.63;22.97;;;;;;;;;;5033833;28;20576;-71
2023/04/16 09:49:37;;;;;;;34.30;23.80;;;;;;;;;;5016214;28;20305;-71
2023/04/16 09:52:08;;;;;;;28.87;21.03;;;;;;;;;;5034034;28;20187;-73
2023/04/16 09:54:34;;;;;;;32.93;22.70;;;;;;;;;;5016153;28;20205;-73
2023/04/16 09:57:00;;;;;;;34.20;21.00;;;;;;;;;;5016699;28;20183;-73
2023/04/16 09:59:32;;;;;;;27.40;21.20;;;;;;;;;;5015944;28;20207;-74
2023/04/16 10:02:00;;;;;;;28.13;22.53;;;;;;;;;;5034044;28;20616;-74
2023/04/16 10:04:26;;;;;;;28.50;21.50;;;;;;;;;;5034273;28;20179;-74
2023/04/16 10:07:05;;;;;;;29.27;21.50;;;;;;;;;;5034436;28;20211;-72
2023/04/16 10:09:37;;;;;;;35.50;23.27;;;;;;;;;;5033659;28;20206;-75
2023/04/16 10:12:03;;;;;;;25.67;20.43;;;;;;;;;;5034587;28;20214;-71
2023/04/16 10:14:30;;;;;;;31.83;22.53;;;;;;;;;;5018889;28;20262;-73
2023/04/16 10:16:56;;;;;;;31.20;22.53;;;;;;;;;;5017867;28;20194;-73
2023/04/16 10:19:22;;;;;;;32.20;22.13;;;;;;;;;;5034158;28;20272;-73
2023/04/16 10:21:48;;;;;;;31.33;21.87;;;;;;;;;;5034542;28;20285;-72
2023/04/16 10:24:15;;;;;;;30.13;21.87;;;;;;;;;;5033982;28;20658;-72
2023/04/16 10:26:41;;;;;;;27.70;21.33;;;;;;;;;;5016343;28;20685;-73
2023/04/16 10:29:08;;;;;;;28.33;21.73;;;;;;;;;;5034373;28;20198;-72
2023/04/16 10:31:36;;;;;;;32.20;22.13;;;;;;;;;;5017591;28;20270;-74
2023/04/16 10:34:03;;;;;;;27.13;20.97;;;;;;;;;;5018222;28;20658;-73
2023/04/16 10:36:29;;;;;;;25.50;20.67;;;;;;;;;;5037011;28;20237;-74
2023/04/16 10:39:00;;;;;;;26.40;21.13;;;;;;;;;;5039704;28;20199;-72
2023/04/16 10:41:26;;;;;;;33.53;23.00;;;;;;;;;;5039522;28;20281;-75
2023/04/16 10:43:53;;;;;;;27.27;21.20;;;;;;;;;;5040128;28;20240;-71
2023/04/16 10:46:23;;;;;;;27.10;19.70;;;;;;;;;;5040217;28;20218;-73
2023/04/16 10:48:50;;;;;;;25.77;19.00;;;;;;;;;;5039337;28;20241;-71
2023/04/16 10:51:35;;;;;;;27.13;20.37;;;;;;;;;;5038956;28;20186;-72
2023/04/16 10:54:19;;;;;;;27.23;19.47;;;;;;;;;;5038078;28;20244;-72
2023/04/16 10:56:46;;;;;;;24.47;19.83;;;;;;;;;;5038848;28;20163;-73
2023/04/16 10:59:12;;;;;;;25.67;20.13;;;;;;;;;;5020339;28;20234;-73
2023/04/16 11:01:44;;;;;;;23.13;18.37;;;;;;;;;;5020367;28;20206;-72
2023/04/16 11:04:19;;;;;;;27.83;18.40;;;;;;;;;;5020845;28;20633;-72
2023/04/16 11:07:02;;;;;;;23.27;18.43;;;;;;;;;;5038695;28;20217;-72
2023/04/16 11:09:46;;;;;;;26.70;19.97;;;;;;;;;;5021166;28;20203;-73
2023/04/16 11:12:17;;;;;;;22.60;18.77;;;;;;;;;;5038473;28;20187;-73
2023/04/16 11:14:46;;;;;;;20.23;16.60;;;;;;;;;;5020290;28;20190;-72
2023/04/16 11:17:12;;;;;;;18.67;16.67;;;;;;;;;;5038233;28;20241;-72
2023/04/16 11:19:38;;;;;;;20.83;16.23;;;;;;;;;;5038039;28;20664;-72
2023/04/16 11:22:05;;;;;;;19.93;17.80;;;;;;;;;;5037611;28;20215;-72
2023/04/16 11:24:31;;;;;;;20.87;16.73;;;;;;;;;;5019830;28;20188;-74
2023/04/16 11:26:57;;;;;;;17.43;15.57;;;;;;;;;;5020348;28;20675;-74
2023/04/16 11:29:23;;;;;;;18.83;14.40;;;;;;;;;;5019171;28;20210;-73
2023/04/16 11:31:50;;;;;;;20.73;15.57;;;;;;;;;;5019316;28;20558;-72
2023/04/16 11:34:17;;;;;;;17.90;15.53;;;;;;;;;;5038348;28;20193;-74
2023/04/16 11:36:48;;;;;;;17.37;14.33;;;;;;;;;;5037308;28;20309;-72
2023/04/16 11:39:15;;;;;;;15.17;13.63;;;;;;;;;;5037051;28;20200;-74
2023/04/16 11:41:48;;;;;;;15.47;13.87;;;;;;;;;;5019450;28;20229;-74
2023/04/16 11:44:18;;;;;;;17.60;14.77;;;;;;;;;;5037082;28;20253;-74
2023/04/16 11:46:44;;;;;;;16.63;14.30;;;;;;;;;;5037756;28;20265;-73
2023/04/16 11:49:10;;;;;;;17.43;14.80;;;;;;;;;;5018529;28;20219;-74
2023/04/16 11:54:07;;;;;;;15.13;13.60;;;;;;;;;;4994154;28;20220;-69
2023/04/16 11:56:34;;;;;;;17.43;14.23;;;;;;;;;;4995650;28;20173;-69
2023/04/16 11:59:16;;;;;;;17.90;14.43;;;;;;;;;;4978401;28;20569;-67
2023/04/16 12:01:45;;;;;;;15.53;14.03;;;;;;;;;;4995336;28;20208;-68
2023/04/16 12:04:13;;;;;;;16.87;13.90;;;;;;;;;;4978053;28;20243;-69
2023/04/16 12:06:39;;;;;;;16.07;14.03;;;;;;;;;;4977912;28;20180;-69
2023/04/16 12:09:24;;;;;;;16.77;14.87;;;;;;;;;;4995446;28;20176;-69
2023/04/16 12:11:50;;;;;;;16.07;14.37;;;;;;;;;;4995530;28;20177;-69
2023/04/16 12:14:16;;;;;;;16.83;14.40;;;;;;;;;;4978006;28;20180;-69
2023/04/16 12:16:42;;;;;;;16.73;14.20;;;;;;;;;;4995330;28;20172;-68
2023/04/16 12:19:10;;;;;;;17.97;13.60;;;;;;;;;;4977784;28;20257;-69
2023/04/16 12:21:40;;;;;;;16.03;14.10;;;;;;;;;;4977872;28;20502;-69
2023/04/16 12:24:07;;;;;;;16.50;14.70;;;;;;;;;;4997388;28;20176;-69
2023/04/16 12:26:44;;;;;;;20.07;14.63;;;;;;;;;;4978002;28;20267;-69
2023/04/16 12:29:16;;;;;;;15.53;13.77;;;;;;;;;;4977783;28;20191;-69
2023/04/16 12:31:42;;;;;;;15.80;14.20;;;;;;;;;;4995617;28;20208;-69
2023/04/16 12:34:09;;;;;;;16.40;14.63;;;;;;;;;;4995742;28;20180;-69
2023/04/16 12:36:35;;;;;;;16.40;14.80;;;;;;;;;;4995116;28;20184;-69
2023/04/16 12:39:02;;;;;;;17.00;15.20;;;;;;;;;;4995315;28;20181;-69
2023/04/16 12:41:28;;;;;;;16.00;14.37;;;;;;;;;;4995036;28;20196;-69
2023/04/16 12:44:03;;;;;;;16.70;14.90;;;;;;;;;;4994883;28;20284;-69
2023/04/16 12:46:29;;;;;;;19.17;14.37;;;;;;;;;;4994841;28;20666;-69
2023/04/16 12:48:56;;;;;;;18.47;15.23;;;;;;;;;;4994930;28;20173;-69
2023/04/16 12:51:22;;;;;;;16.97;14.80;;;;;;;;;;4994654;28;20191;-69
2023/04/16 12:53:48;;;;;;;21.07;16.03;;;;;;;;;;4994721;28;20296;-69
2023/04/16 12:56:14;;;;;;;18.80;16.80;;;;;;;;;;4994754;28;20185;-69
2023/04/16 12:58:40;;;;;;;16.63;14.70;;;;;;;;;;4996270;28;20231;-68
2023/04/16 13:01:06;;;;;;;17.73;15.00;;;;;;;;;;4994371;28;20595;-69
2023/04/16 13:03:35;;;;;;;17.67;14.97;;;;;;;;;;4994392;28;20666;-71
2023/04/16 13:06:01;;;;;;;18.40;15.73;;;;;;;;;;4994385;28;20173;-69
2023/04/16 13:08:28;;;;;;;16.53;14.83;;;;;;;;;;4994512;28;20173;-68
2023/04/16 13:10:54;;;;;;;17.07;15.27;;;;;;;;;;4994611;28;20176;-68
2023/04/16 13:13:19;;;;;;;16.77;14.97;;;;;;;;;;4976756;28;20259;-68
2023/04/16 13:15:45;;;;;;;18.03;15.27;;;;;;;;;;4976830;28;20603;-68
2023/04/16 13:18:11;;;;;;;17.00;15.20;;;;;;;;;;4976666;28;20663;-68
2023/04/16 13:20:37;;;;;;;21.57;18.10;;;;;;;;;;4994432;28;20267;-69
2023/04/16 13:23:04;;;;;;;22.70;16.27;;;;;;;;;;4994111;28;20212;-69
2023/04/16 13:25:30;;;;;;;18.47;16.00;;;;;;;;;;4995537;28;20187;-69
2023/04/16 13:27:56;;;;;;;20.80;16.97;;;;;;;;;;4995037;28;20256;-69
2023/04/16 13:30:22;;;;;;;19.63;16.03;;;;;;;;;;4977676;28;20215;-68
2023/04/16 13:32:48;;;;;;;18.70;15.87;;;;;;;;;;4995407;28;20205;-68
2023/04/16 13:35:14;;;;;;;16.50;14.80;;;;;;;;;;4977056;28;20180;-69
2023/04/16 13:37:40;;;;;;;16.33;14.60;;;;;;;;;;4976748;28;20188;-69
2023/04/16 13:40:06;;;;;;;19.63;16.20;;;;;;;;;;4976759;28;20188;-68
2023/04/16 13:42:32;;;;;;;16.80;14.90;;;;;;;;;;4976359;28;20224;-69
2023/04/16 13:44:58;;;;;;;17.87;15.97;;;;;;;;;;4993995;28;20610;-69
2023/04/16 13:47:25;;;;;;;18.03;16.07;;;;;;;;;;4994374;28;20643;-69
2023/04/16 13:49:50;;;;;;;19.83;14.97;;;;;;;;;;4976584;28;20591;-68
2023/04/16 13:52:16;;;;;;;17.50;15.47;;;;;;;;;;4995039;28;20222;-69
2023/04/16 13:54:42;;;;;;;17.30;15.30;;;;;;;;;;4994879;28;20669;-69
2023/04/16 13:57:08;;;;;;;16.23;14.43;;;;;;;;;;4976662;28;20568;-69
2023/04/16 13:59:34;;;;;;;17.50;15.70;;;;;;;;;;4993712;28;20603;-68
2023/04/16 14:02:00;;;;;;;18.17;15.77;;;;;;;;;;4976128;28;20628;-69
2023/04/16 14:04:26;;;;;;;17.70;15.67;;;;;;;;;;4976202;28;20626;-69
2023/04/16 14:06:52;;;;;;;16.73;14.80;;;;;;;;;;4976191;28;20184;-69
2023/04/16 14:09:18;;;;;;;17.00;15.00;;;;;;;;;;4976109;28;20230;-69
2023/04/16 14:11:44;;;;;;;19.30;15.47;;;;;;;;;;4995681;28;20602;-69
2023/04/16 14:14:11;;;;;;;20.73;17.33;;;;;;;;;;4997608;28;20180;-69
2023/04/16 14:16:36;;;;;;;17.67;15.87;;;;;;;;;;4980053;28;20659;-69